createdAt,value
2018-02-02T00:04:59.710Z,97999.56
2018-02-02T00:11:03.153Z,98003.97
2018-02-02T00:17:06.611Z,98001.55
2018-02-02T00:23:10.073Z,97992.77
2018-02-02T00:29:13.679Z,97995.78
2018-02-02T00:35:17.401Z,98005.03
2018-02-02T00:41:21.268Z,97982.39
2018-02-02T00:47:24.734Z,97981.24
2018-02-02T00:53:28.333Z,97982.69
2018-02-02T00:59:32.549Z,97978.21
2018-02-02T01:05:36.780Z,97957.82
2018-02-02T01:11:40.242Z,97971.61
2018-02-02T01:17:43.833Z,97977.23
2018-02-02T01:23:47.334Z,97970.95
2018-02-02T01:29:51.823Z,97969.88
2018-02-02T01:35:55.707Z,97960.91
2018-02-02T01:41:59.158Z,97958.96
2018-02-02T01:48:20.975Z,97961.86
2018-02-02T01:54:25.257Z,97956.88
2018-02-02T02:00:28.737Z,97953.27
2018-02-02T02:06:32.274Z,97957.19
2018-02-02T02:12:36.639Z,97958.10
2018-02-02T02:18:40.170Z,97951.94
2018-02-02T02:24:43.707Z,97946.02
2018-02-02T02:30:47.298Z,97941.06
2018-02-02T02:36:51.991Z,97947.08
2018-02-02T02:42:55.661Z,97952.05
2018-02-02T02:48:59.902Z,97949.58
2018-02-02T02:55:03.414Z,97941.38
2018-02-02T03:01:06.963Z,97941.18
2018-02-02T03:07:10.416Z,97945.03
2018-02-02T03:19:24.093Z,97943.91
2018-02-02T03:25:27.642Z,97944.70
2018-02-02T03:31:31.139Z,97952.00
2018-02-02T03:37:35.096Z,97964.17
2018-02-02T03:43:38.550Z,97955.17
2018-02-02T03:49:42.227Z,97952.23
2018-02-02T03:55:45.689Z,97955.69
2018-02-02T04:01:50.267Z,97958.55
2018-02-02T04:07:54.066Z,97954.31
2018-02-02T04:13:57.717Z,97964.35
2018-02-02T04:20:01.285Z,97956.65
2018-02-02T04:26:04.795Z,97963.45
2018-02-02T04:32:08.452Z,97950.45
2018-02-02T04:38:12.130Z,97959.37
2018-02-02T04:44:16.354Z,97954.07
2018-02-02T04:50:20.246Z,97959.23
2018-02-02T04:56:24.283Z,97951.16
2018-02-02T05:02:28.181Z,97951.03
2018-02-02T05:08:32.569Z,97957.82
2018-02-02T05:14:36.877Z,97948.02
2018-02-02T05:20:40.383Z,97960.14
2018-02-02T05:26:44.618Z,97954.52
2018-02-02T05:32:48.087Z,97953.68
2018-02-02T05:38:51.986Z,97942.70
2018-02-02T05:44:55.554Z,97941.17
2018-02-02T05:50:59.138Z,97936.61
2018-02-02T05:57:02.675Z,97939.55
2018-02-02T06:03:06.147Z,97930.70
2018-02-02T06:09:09.601Z,97930.36
2018-02-02T06:15:13.079Z,97913.73
2018-02-02T06:21:16.775Z,97914.36
2018-02-02T06:27:20.665Z,97919.74
2018-02-02T06:33:24.453Z,97919.29
2018-02-02T06:39:27.964Z,97923.84
2018-02-02T06:45:31.473Z,97922.97
2018-02-02T06:51:35.023Z,97928.03
2018-02-02T06:57:39.245Z,97927.86
2018-02-02T07:03:42.755Z,97933.05
2018-02-02T07:09:46.373Z,97939.38
2018-02-02T07:15:49.959Z,97940.80
2018-02-02T07:21:54.165Z,97939.94
2018-02-02T07:27:57.674Z,97935.16
2018-02-02T07:34:01.269Z,97934.50
2018-02-02T07:40:04.834Z,97932.69
2018-02-02T07:46:09.095Z,97948.91
2018-02-02T07:52:13.454Z,97935.44
2018-02-02T07:58:16.908Z,97939.09
2018-02-02T08:04:20.987Z,97953.56
2018-02-02T08:10:24.533Z,97948.42
2018-02-02T08:16:28.002Z,97952.33
2018-02-02T08:22:32.216Z,97952.08
2018-02-02T08:28:35.656Z,97959.11
2018-02-02T08:34:39.101Z,97959.77
2018-02-02T08:40:42.636Z,97957.38
2018-02-02T08:46:46.073Z,97960.34
2018-02-02T08:52:50.762Z,97954.02
2018-02-02T08:58:54.678Z,97956.67
2018-02-02T09:04:58.328Z,97962.39
2018-02-02T09:11:01.865Z,97965.03
2018-02-02T09:17:05.466Z,97975.53
2018-02-02T09:23:09.027Z,97967.72
2018-02-02T09:29:12.643Z,97976.38
2018-02-02T09:35:16.089Z,97971.14
2018-02-02T09:41:19.708Z,97976.44
2018-02-02T09:47:24.173Z,97979.30
2018-02-02T09:53:27.645Z,97976.54
2018-02-02T09:59:31.887Z,97993.55
2018-02-02T10:05:35.350Z,97989.02
2018-02-02T10:11:38.882Z,97992.23
2018-02-02T10:17:42.541Z,98003.64
2018-02-02T10:23:46.039Z,97990.58
2018-02-02T10:29:51.081Z,97999.99
2018-02-02T10:35:54.673Z,97992.88
2018-02-02T10:41:58.140Z,97989.73
2018-02-02T10:48:02.368Z,97980.30
2018-02-02T10:54:05.845Z,97978.44
2018-02-02T11:00:09.320Z,97979.77
2018-02-02T11:06:13.567Z,97983.17
2018-02-02T11:12:17.117Z,97977.55
2018-02-02T11:18:21.171Z,97974.33
2018-02-02T11:24:25.121Z,97973.30
2018-02-02T11:30:28.602Z,97974.36
2018-02-02T11:36:32.091Z,97974.86
2018-02-02T11:42:36.293Z,97972.38
2018-02-02T11:48:40.548Z,97977.97
2018-02-02T11:54:44.038Z,97971.80
2018-02-02T12:00:47.494Z,97977.28
2018-02-02T12:06:50.957Z,97976.23
2018-02-02T12:12:54.429Z,97970.17
2018-02-02T12:18:58.683Z,97984.19
2018-02-02T12:31:48.376Z,97990.38
2018-02-02T12:37:52.992Z,97988.91
2018-02-02T12:43:56.578Z,97993.36
2018-02-02T12:50:07.702Z,97997.91
2018-02-02T12:56:11.358Z,97992.99
2018-02-02T13:02:14.816Z,97993.00
2018-02-02T13:08:18.445Z,98003.84
2018-02-02T13:14:22.993Z,97992.02
2018-02-02T13:21:30.584Z,98000.34
2018-02-02T13:27:35.865Z,97989.70
2018-02-02T13:33:40.342Z,97992.39
2018-02-02T13:39:44.798Z,97993.41
2018-02-02T13:45:49.260Z,97995.51
2018-02-02T13:51:54.641Z,97996.09
2018-02-02T13:57:59.886Z,98001.67
2018-02-02T14:04:04.535Z,98005.31
2018-02-02T14:10:09.024Z,98007.31
2018-02-02T14:16:13.616Z,98010.40
2018-02-02T14:22:18.295Z,98017.78
2018-02-02T14:28:24.201Z,98013.81
2018-02-02T14:34:28.711Z,98022.89
2018-02-02T14:40:33.353Z,98039.55
2018-02-02T14:46:37.879Z,98039.17
2018-02-02T14:52:42.348Z,98044.28
2018-02-02T14:58:46.810Z,98045.50
2018-02-02T15:04:51.500Z,98059.27
2018-02-02T15:10:56.098Z,98064.45
2018-02-02T15:17:00.574Z,98068.59
2018-02-02T15:23:22.889Z,98071.30
2018-02-02T15:29:27.573Z,98059.11
2018-02-02T15:35:32.781Z,98080.11
2018-02-02T15:41:38.003Z,98081.99
2018-02-02T15:47:43.237Z,98091.89
2018-02-02T15:53:47.729Z,98095.01
2018-02-02T15:59:53.013Z,98105.95
2018-02-02T16:05:57.560Z,98108.77
2018-02-02T16:12:02.013Z,98105.04
2018-02-02T16:18:06.573Z,98104.08
2018-02-02T16:24:11.860Z,98117.79
2018-02-02T16:30:17.448Z,98120.54
2018-02-02T16:36:23.588Z,98134.86
2018-02-02T16:42:28.874Z,98132.27
2018-02-02T16:48:33.385Z,98138.49
2018-02-02T16:54:37.930Z,98142.56
2018-02-02T17:00:43.168Z,98150.16
2018-02-02T17:06:47.635Z,98151.80
2018-02-02T17:12:52.425Z,98160.57
2018-02-02T17:18:57.253Z,98164.38
2018-02-02T17:25:01.778Z,98164.95
2018-02-02T17:31:06.286Z,98170.91
2018-02-02T17:37:10.961Z,98169.85
2018-02-02T17:43:15.491Z,98169.18
2018-02-02T17:49:21.314Z,98171.48
2018-02-02T17:55:26.206Z,98171.73
2018-02-02T18:01:30.634Z,98184.60
2018-02-02T18:07:35.216Z,98197.42
2018-02-02T18:13:39.699Z,98199.44
2018-02-02T18:19:44.358Z,98202.62
2018-02-02T18:25:48.935Z,98203.44
2018-02-02T18:31:53.686Z,98206.09
2018-02-02T18:37:58.314Z,98209.94
2018-02-02T18:44:02.982Z,98215.64
2018-02-02T18:50:07.481Z,98218.01
2018-02-02T18:56:12.770Z,98228.98
2018-02-02T19:02:17.265Z,98231.70
2018-02-02T19:08:22.135Z,98223.22
2018-02-02T19:14:27.549Z,98228.61
2018-02-02T19:20:32.128Z,98237.42
2018-02-02T19:26:36.725Z,98240.83
2018-02-02T19:32:42.127Z,98246.53
2018-02-02T19:38:47.607Z,98240.73
2018-02-02T19:44:52.787Z,98243.44
2018-02-02T19:50:57.521Z,98247.56
2018-02-02T19:57:01.996Z,98249.70
2018-02-02T20:03:06.443Z,98254.66
2018-02-02T20:09:10.974Z,98249.20
2018-02-02T20:15:17.006Z,98247.84
2018-02-02T20:21:26.655Z,98251.09
2018-02-02T20:27:31.177Z,98267.72
2018-02-02T20:33:35.754Z,98267.05
2018-02-02T20:39:40.355Z,98265.50
2018-02-02T20:45:44.938Z,98269.31
2018-02-02T20:51:49.744Z,98273.50
2018-02-02T20:57:54.336Z,98267.85
2018-02-02T21:03:59.594Z,98266.42
2018-02-02T21:10:04.081Z,98266.44
2018-02-02T21:16:09.354Z,98268.12
2018-02-02T21:22:13.831Z,98273.61
2018-02-02T21:28:18.336Z,98271.80
2018-02-02T21:34:23.160Z,98277.83
2018-02-02T21:40:27.634Z,98285.27
2018-02-02T21:46:32.202Z,98279.05
2018-02-02T21:52:36.685Z,98284.52
2018-02-02T21:58:41.243Z,98285.25
2018-02-02T22:04:46.765Z,98287.90
2018-02-02T22:10:52.803Z,98298.70
2018-02-02T22:16:57.357Z,98301.52
2018-02-02T22:23:01.818Z,98310.89
2018-02-02T22:29:06.417Z,98314.94
2018-02-02T22:35:10.886Z,98312.61
2018-02-02T22:41:15.624Z,98312.01
2018-02-02T22:47:22.192Z,98316.39
2018-02-02T22:53:27.455Z,98324.72
2018-02-02T22:59:33.487Z,98329.73
2018-02-02T23:05:38.774Z,98325.74
2018-02-02T23:11:43.997Z,98330.51
2018-02-02T23:17:48.632Z,98328.91
2018-02-02T23:23:55.263Z,98326.58
2018-02-02T23:30:01.258Z,98325.56
2018-02-02T23:36:05.729Z,98332.15
2018-02-02T23:42:10.335Z,98337.56
2018-02-02T23:48:15.014Z,98340.09
2018-02-02T23:54:20.230Z,98345.89
